Flight Track Log - Related Links

Times and Time Zones

All times are in EDT time to prevent confusion due to time zone crossing. See the CWC496 flight status page for this flight to view local times or setup timezone preferences in your user account.

Time Position Orientation Groundspeed Altitude Reporting Facility
EDT Latitude Longitude Course Direction KTS MPH feet Rate Location/Type
Fri 03:39:00 PM 5.9095 -74.4717 345° North  Level Estimated
Fri 03:40:00 PM 6.0319 -74.5046 345° North  Level Estimated
Fri 03:41:00 PM 6.1543 -74.5376 345° North  Level Estimated
Fri 03:42:00 PM 6.2767 -74.5706 345° North  Level Estimated
Fri 03:43:00 PM 6.3991 -74.6037 345° North  Level Estimated
Fri 03:44:00 PM 6.5215 -74.6367 345° North  Level Estimated
Fri 03:45:00 PM 6.6439 -74.6698 345° North  Level Estimated
Fri 03:46:00 PM 6.7663 -74.7029 345° North  Level Estimated
Fri 03:47:00 PM 6.8887 -74.7360 345° North  Level Estimated
Fri 03:48:00 PM 7.0111 -74.7691 345° North  Level Estimated
Fri 03:49:00 PM 7.1335 -74.8022 345° North  Level Estimated
Fri 03:50:00 PM 7.2559 -74.8354 345° North  Level Estimated
Fri 03:51:00 PM 7.3783 -74.8685 345° North  Level Estimated
Fri 03:52:00 PM 7.5007 -74.9017 345° North  Level Estimated
Fri 03:53:00 PM 7.6231 -74.9349 345° North  Level Estimated
Fri 03:54:00 PM 7.7455 -74.9681 345° North  Level Estimated
Fri 03:55:00 PM 7.8678 -75.0014 345° North  Level Estimated
Fri 03:55:45 PM 25.0678 -79.5314 345° North 441 507 18,800  Level Miami Center
Fri 03:56:00 PM 7.9902 -75.0346 345° North  Level Estimated
Fri 03:56:45 PM 25.1647 -79.5911 331° Northwest 418 481 15,300  Level Miami Center
Fri 03:57:00 PM 8.1126 -75.0679 345° North  Level Estimated
Fri 03:57:10 PM 25.2081 -79.6219 327° Northwest 393 452 13,900  Level Miami Center
Fri 03:57:46 PM 25.2556 -79.6575 326° Northwest 391 450 12,000 -2,084 Descending Miami Center
Fri 03:58:00 PM 8.2350 -75.1012 345° North  Level Estimated
Fri 03:58:45 PM 25.3442 -79.7147 330° Northwest 383 441 10,600  Level Miami Center
Fri 03:59:00 PM 8.3573 -75.1345 345° North  Level Estimated
Fri 03:59:42 PM 25.4189 -79.7486 338° Northwest 294 338 9,900  Level Miami Center
Fri 04:00:00 PM 8.4797 -75.1679 345° North  Level Estimated
Fri 04:00:45 PM 25.4717 -79.8142 312° West 296 341 8,600  Level Miami Center
Fri 04:01:45 PM 25.5486 -79.8436 341° North 290 334 7,100 -1,250 Descending Miami Center
Fri 04:02:45 PM 25.6189 -79.8731 339° North 276 318 6,100 -1,150 Descending Miami Center
Fri 04:03:45 PM 25.6853 -79.8978 341° North 265 305 4,800 -1,300 Descending Miami Center
Fri 04:04:45 PM 25.7281 -79.9519 311° West 239 275 3,500 -844 Descending Miami Center
Fri 04:05:53 PM 25.7600 -80.0197 298° West 216 249 3,000 -250 Descending Miami Center
Fri 04:06:45 PM 25.7925 -80.0667 308° West 221 254 3,000 -393 Level Miami Center
Fri 04:07:55 PM 25.8053 -80.1431 281° West 208 239 2,200 -768 Descending Miami Center
Fri 04:08:50 PM 25.8022 -80.1939 266° West 168 193 1,400 -879 Descending Miami Center
Fri 04:09:51 PM 25.8008 -80.2492 268° West 178 205 500 -885 Descending Miami Center
Fri 04:11:00 PM 25.7833 -80.2833 260° West  Level FlightAware Approximate
Fri 04:18:00 PM 25.7954 -80.2901 260° West  Level Estimated

Login

Don't have an account? Register now (free) for customized features, flight alerts, and more!